Terminal Aerodrome Forecast
Issued by NWS

Home | Current Version | Previous Version | Text Only | Print | Product List | Glossary On
Versions: 1 2 3 4 5 6 7 8 9 10 11 12 13 14 15 16 17
380
FTUS43 KICT 161722
TAFCNU
TAF
KCNU 161722Z 1618/1718 14011KT P6SM SKC
     FM170000 14009KT P6SM BKN040
     FM170800 15012KT P6SM OVC015
     FM171000 16014G20KT 6SM BR OVC008
     FM171600 18016G23KT P6SM OVC015=

USA.gov is the U.S. government's official web portal to all federal, state and local government web resources and services.